createdAt,value
2023-01-12T00:03:10.781Z,100952.56
2023-01-12T00:08:13.801Z,100941.00
2023-01-12T00:13:16.832Z,100940.25
2023-01-12T00:18:21.352Z,100928.09
2023-01-12T00:23:30.585Z,100925.44
2023-01-12T00:28:33.732Z,100912.13
2023-01-12T00:33:39.203Z,100918.53
2023-01-12T00:38:42.634Z,100911.63
2023-01-12T00:44:02.842Z,100900.34
2023-01-12T00:49:08.092Z,100890.84
2023-01-12T00:54:11.303Z,100891.13
2023-01-12T00:59:14.592Z,100868.50
2023-01-12T01:04:19.401Z,100871.22
2023-01-12T01:09:22.685Z,100849.50
2023-01-12T01:14:26.236Z,100854.88
2023-01-12T01:19:30.917Z,100837.44
2023-01-12T01:24:33.886Z,100842.75
2023-01-12T01:29:36.980Z,100832.97
2023-01-12T01:34:42.047Z,100837.50
2023-01-12T01:39:45.177Z,100843.59
2023-01-12T01:44:55.508Z,100846.22
2023-01-12T01:50:03.147Z,100838.34
2023-01-12T01:55:09.528Z,100813.75
2023-01-12T02:00:14.228Z,100812.84
2023-01-12T02:05:21.906Z,100824.13
2023-01-12T02:10:26.809Z,100802.22
2023-01-12T02:15:57.328Z,100774.19
2023-01-12T02:21:11.639Z,100769.84
2023-01-12T02:26:47.228Z,100784.72
2023-01-12T02:32:02.533Z,100750.69
2023-01-12T02:37:14.514Z,100751.53
2023-01-12T02:42:43.440Z,100728.66
2023-01-12T02:47:51.994Z,100744.31
2023-01-12T02:53:04.060Z,100731.13
2023-01-12T02:58:11.062Z,100720.66
2023-01-12T03:03:17.400Z,100694.44
2023-01-12T03:08:28.785Z,100696.09
2023-01-12T03:13:36.058Z,100666.47
2023-01-12T03:18:46.062Z,100649.78
2023-01-12T03:23:55.596Z,100646.28
2023-01-12T03:29:05.320Z,100635.63
2023-01-12T03:34:10.831Z,100605.13
2023-01-12T03:39:22.957Z,100594.56
2023-01-12T03:44:41.733Z,100571.78
2023-01-12T03:49:52.032Z,100536.81
2023-01-12T03:54:58.457Z,100502.72
2023-01-12T04:00:04.064Z,100499.09
2023-01-12T04:05:18.059Z,100473.88
2023-01-12T04:10:21.078Z,100460.78
2023-01-12T04:15:24.105Z,100450.38
2023-01-12T04:20:28.705Z,100429.50
2023-01-12T04:25:31.970Z,100423.38
2023-01-12T04:30:35.968Z,100445.34
2023-01-12T04:35:40.450Z,100417.47
2023-01-12T04:40:43.423Z,100407.06
2023-01-12T04:45:47.846Z,100405.41
2023-01-12T04:50:52.186Z,100418.44
2023-01-12T04:55:57.709Z,100411.63
2023-01-12T05:01:09.479Z,100415.16
2023-01-12T05:06:14.374Z,100391.66
2023-01-12T05:11:17.442Z,100412.53
2023-01-12T05:16:20.965Z,100402.19
2023-01-12T05:21:26.594Z,100382.13
2023-01-12T05:26:29.575Z,100381.31
2023-01-12T05:31:35.434Z,100397.03
2023-01-12T05:36:39.886Z,100362.00
2023-01-12T05:42:02.995Z,100384.97
2023-01-12T05:47:06.216Z,100389.44
2023-01-12T05:52:10.687Z,100369.44
2023-01-12T05:57:13.895Z,100379.13
2023-01-12T06:02:17.965Z,100371.28
2023-01-12T06:07:24.189Z,100362.59
2023-01-12T06:12:44.827Z,100376.78
2023-01-12T06:17:47.874Z,100377.59
2023-01-12T06:22:52.224Z,100375.88
2023-01-12T06:27:57.866Z,100381.50
2023-01-12T06:33:03.120Z,100386.06
2023-01-12T06:38:07.654Z,100387.97
2023-01-12T06:43:10.776Z,100414.19
2023-01-12T06:48:13.717Z,100394.38
2023-01-12T06:53:18.175Z,100421.50
2023-01-12T06:58:21.173Z,100412.84
2023-01-12T07:03:24.555Z,100418.19
2023-01-12T07:08:29.282Z,100426.19
2023-01-12T07:13:32.845Z,100433.31
2023-01-12T07:18:36.332Z,100435.09
2023-01-12T07:23:42.269Z,100411.31
2023-01-12T07:28:45.457Z,100436.16
2023-01-12T07:33:48.942Z,100439.75
2023-01-12T07:38:55.856Z,100452.06
2023-01-12T07:43:59.214Z,100456.75
2023-01-12T07:49:02.277Z,100448.06
2023-01-12T07:54:06.890Z,100462.91
2023-01-12T07:59:10.327Z,100461.31
2023-01-12T08:04:14.016Z,100470.19
2023-01-12T08:09:18.597Z,100463.16
2023-01-12T08:14:30.372Z,100477.38
2023-01-12T08:19:42.002Z,100476.59
2023-01-12T08:25:02.421Z,100482.94
2023-01-12T08:30:08.736Z,100476.03
2023-01-12T08:35:15.071Z,100499.78
2023-01-12T08:40:19.965Z,100487.66
2023-01-12T08:45:23.062Z,100492.19
2023-01-12T08:50:30.166Z,100497.44
2023-01-12T08:55:34.763Z,100486.06
2023-01-12T09:00:37.870Z,100512.47
2023-01-12T09:05:40.962Z,100523.09
2023-01-12T09:10:45.441Z,100528.44
2023-01-12T09:16:01.426Z,100523.13
2023-01-12T09:21:12.978Z,100523.34
2023-01-12T09:26:20.416Z,100559.38
2023-01-12T09:31:26.542Z,100545.47
2023-01-12T09:36:31.759Z,100549.03
2023-01-12T09:41:57.427Z,100555.97
2023-01-12T09:47:00.906Z,100563.25
2023-01-12T09:52:13.321Z,100570.38
2023-01-12T09:57:51.677Z,100564.41
2023-01-12T10:03:04.765Z,100572.31
2023-01-12T10:08:17.442Z,100582.00
2023-01-12T10:13:22.976Z,100574.31
2023-01-12T10:18:32.257Z,100579.69
2023-01-12T10:23:35.395Z,100597.31
2023-01-12T10:28:43.787Z,100582.41
2023-01-12T10:34:04.999Z,100607.00
2023-01-12T10:39:30.407Z,100581.53
2023-01-12T10:44:34.858Z,100585.13
2023-01-12T10:49:38.369Z,100588.59
2023-01-12T10:54:42.625Z,100592.94
2023-01-12T10:59:54.651Z,100583.25
2023-01-12T11:04:57.645Z,100592.16
2023-01-12T11:10:20.702Z,100590.50
2023-01-12T11:15:25.338Z,100583.44
2023-01-12T11:20:35.361Z,100584.28
2023-01-12T11:25:44.137Z,100575.56
2023-01-12T11:30:54.057Z,100565.78
2023-01-12T11:36:04.199Z,100573.03
2023-01-12T11:41:11.284Z,100567.78
2023-01-12T11:46:22.811Z,100571.34
2023-01-12T11:51:26.281Z,100564.31
2023-01-12T11:57:02.275Z,100553.09
2023-01-12T12:02:22.590Z,100553.09
2023-01-12T12:07:37.479Z,100548.66
2023-01-12T12:12:49.030Z,100548.81
2023-01-12T12:18:06.442Z,100554.06
2023-01-12T12:23:25.525Z,100518.72
2023-01-12T12:28:48.987Z,100533.97
2023-01-12T12:34:11.223Z,100514.63
2023-01-12T12:39:34.565Z,100512.00
2023-01-12T12:45:14.668Z,100499.72
2023-01-12T12:50:23.293Z,100502.19
2023-01-12T12:55:28.306Z,100497.03
2023-01-12T13:00:40.407Z,100483.75
2023-01-12T13:05:48.279Z,100499.63
2023-01-12T13:10:54.596Z,100479.50
2023-01-12T13:16:45.481Z,100468.84
2023-01-12T13:21:58.547Z,100457.63
2023-01-12T13:27:02.072Z,100457.63
2023-01-12T13:32:43.610Z,100473.47
2023-01-12T13:37:53.458Z,100462.84
2023-01-12T13:43:26.307Z,100455.78
2023-01-12T13:48:33.519Z,100461.88
2023-01-12T13:53:39.282Z,100460.13
2023-01-12T13:58:44.483Z,100452.25
2023-01-12T14:04:22.819Z,100447.00
2023-01-12T14:09:42.078Z,100444.38
2023-01-12T14:15:36.066Z,100449.53
2023-01-12T14:20:45.389Z,100437.81
2023-01-12T14:26:05.955Z,100439.88
2023-01-12T14:31:16.905Z,100432.00
2023-01-12T14:36:32.453Z,100439.94
2023-01-12T14:41:54.940Z,100431.97
2023-01-12T14:46:58.126Z,100436.41
2023-01-12T14:52:26.306Z,100415.97
2023-01-12T14:57:34.966Z,100433.72
2023-01-12T15:02:41.303Z,100420.53
2023-01-12T15:07:55.749Z,100418.72
2023-01-12T15:13:14.001Z,100423.16
2023-01-12T15:18:34.582Z,100423.19
2023-01-12T15:23:58.140Z,100423.06
2023-01-12T15:29:05.496Z,100401.81
2023-01-12T15:34:14.128Z,100406.22
2023-01-12T15:40:01.608Z,100404.59
2023-01-12T15:45:19.228Z,100390.06
2023-01-12T15:50:22.731Z,100401.97
2023-01-12T15:55:31.628Z,100400.78
2023-01-12T16:00:42.371Z,100413.16
2023-01-12T16:05:47.976Z,100414.06
2023-01-12T16:11:05.191Z,100419.16
2023-01-12T16:16:16.077Z,100411.38
2023-01-12T16:21:22.591Z,100426.22
2023-01-12T16:26:31.029Z,100406.03
2023-01-12T16:31:39.509Z,100420.94
2023-01-12T16:36:42.796Z,100426.22
2023-01-12T16:41:46.013Z,100427.03
2023-01-12T16:46:51.222Z,100433.19
2023-01-12T16:51:55.458Z,100439.31
2023-01-12T16:57:01.828Z,100431.47
2023-01-12T17:02:08.405Z,100414.75
2023-01-12T17:07:12.855Z,100401.63
2023-01-12T17:12:16.504Z,100415.69
2023-01-12T17:17:21.199Z,100411.34
2023-01-12T17:22:25.768Z,100408.66
2023-01-12T17:27:29.101Z,100398.13
2023-01-12T17:32:34.334Z,100413.88
2023-01-12T17:37:37.971Z,100415.63
2023-01-12T17:42:58.971Z,100416.53
2023-01-12T17:48:03.742Z,100419.22
2023-01-12T17:53:09.310Z,100415.53
2023-01-12T17:58:12.921Z,100423.47
2023-01-12T18:03:17.601Z,100419.13
2023-01-12T18:08:20.867Z,100407.50
2023-01-12T18:13:24.431Z,100421.78
2023-01-12T18:18:30.162Z,100420.88
2023-01-12T18:23:33.479Z,100423.50
2023-01-12T18:28:36.692Z,100405.00
2023-01-12T18:33:41.784Z,100402.47
2023-01-12T18:38:45.233Z,100413.81
2023-01-12T18:43:49.339Z,100400.56
2023-01-12T18:48:53.867Z,100405.00
2023-01-12T18:53:57.817Z,100407.63
2023-01-12T18:59:04.366Z,100393.50
2023-01-12T19:04:10.107Z,100399.72
2023-01-12T19:09:31.365Z,100405.00
2023-01-12T19:14:53.203Z,100383.78
2023-01-12T19:19:59.043Z,100404.88
2023-01-12T19:25:19.493Z,100409.25
2023-01-12T19:30:23.410Z,100399.63
2023-01-12T19:35:30.551Z,100385.53
2023-01-12T19:40:36.688Z,100367.03
2023-01-12T19:45:40.615Z,100351.38
2023-01-12T19:50:45.692Z,100344.34
2023-01-12T19:55:51.104Z,100346.97
2023-01-12T20:00:55.762Z,100340.75
2023-01-12T20:06:00.332Z,100340.91
2023-01-12T20:11:05.477Z,100328.69
2023-01-12T20:16:10.638Z,100339.19
2023-01-12T20:21:15.855Z,100311.09
2023-01-12T20:26:19.016Z,100318.19
2023-01-12T20:31:22.329Z,100314.78
2023-01-12T20:36:27.229Z,100315.66
2023-01-12T20:41:30.461Z,100319.19
2023-01-12T20:46:33.672Z,100332.31
2023-01-12T20:51:38.281Z,100322.63
2023-01-12T20:56:41.210Z,100321.72
2023-01-12T21:01:44.619Z,100313.81
2023-01-12T21:06:49.230Z,100305.06
2023-01-12T21:11:52.321Z,100324.16
2023-01-12T21:16:55.821Z,100343.50
2023-01-12T21:22:00.618Z,100343.41
2023-01-12T21:27:04.088Z,100357.38
2023-01-12T21:32:07.399Z,100345.84
2023-01-12T21:37:11.941Z,100360.59
2023-01-12T21:42:32.717Z,100355.34
2023-01-12T21:47:35.854Z,100334.03
2023-01-12T21:52:41.635Z,100363.09
2023-01-12T21:57:46.001Z,100366.66
2023-01-12T22:02:51.139Z,100367.72
2023-01-12T22:07:57.856Z,100366.72
2023-01-12T22:13:04.208Z,100378.63
2023-01-12T22:18:07.816Z,100362.84
2023-01-12T22:23:14.201Z,100369.09
2023-01-12T22:28:17.432Z,100363.91
2023-01-12T22:33:20.611Z,100352.56
2023-01-12T22:38:25.105Z,100376.97
2023-01-12T22:43:28.169Z,100384.84
2023-01-12T22:48:34.070Z,100381.13
2023-01-12T22:53:38.450Z,100379.19
2023-01-12T22:58:41.936Z,100380.25
2023-01-12T23:03:45.540Z,100393.81
2023-01-12T23:08:50.540Z,100388.00
2023-01-12T23:13:54.433Z,100393.47
2023-01-12T23:18:57.515Z,100387.84
2023-01-12T23:24:02.363Z,100390.91
2023-01-12T23:29:05.436Z,100416.97
2023-01-12T23:34:08.547Z,100393.91
2023-01-12T23:39:13.018Z,100395.00
2023-01-12T23:44:16.125Z,100392.09
2023-01-12T23:49:19.188Z,100398.75
2023-01-12T23:54:23.615Z,100383.47
2023-01-12T23:59:26.684Z,100383.63
